sensor_id;sensor_type;location;lat;lon;timestamp;P1;durP1;ratioP1;P2;durP2;ratioP2
65597;SDS011;52267;51.984;20.956;2022-07-22T00:00:54;8.60;;;6.00;;
65597;SDS011;52267;51.984;20.956;2022-07-22T00:03:21;10.30;;;6.30;;
65597;SDS011;52267;51.984;20.956;2022-07-22T00:05:49;8.90;;;6.30;;
65597;SDS011;52267;51.984;20.956;2022-07-22T00:08:16;11.20;;;7.10;;
65597;SDS011;52267;51.984;20.956;2022-07-22T00:10:43;9.90;;;6.40;;
65597;SDS011;52267;51.984;20.956;2022-07-22T00:13:10;9.30;;;6.70;;
65597;SDS011;52267;51.984;20.956;2022-07-22T00:15:38;10.30;;;6.60;;
65597;SDS011;52267;51.984;20.956;2022-07-22T00:18:05;9.50;;;6.20;;
65597;SDS011;52267;51.984;20.956;2022-07-22T00:20:32;8.80;;;6.40;;
65597;SDS011;52267;51.984;20.956;2022-07-22T00:22:59;10.40;;;6.50;;
65597;SDS011;52267;51.984;20.956;2022-07-22T00:25:26;11.90;;;7.60;;
65597;SDS011;52267;51.984;20.956;2022-07-22T00:27:55;11.40;;;7.20;;
65597;SDS011;52267;51.984;20.956;2022-07-22T00:30:22;10.60;;;7.20;;
65597;SDS011;52267;51.984;20.956;2022-07-22T00:32:49;9.70;;;6.70;;
65597;SDS011;52267;51.984;20.956;2022-07-22T00:35:16;9.50;;;6.40;;
65597;SDS011;52267;51.984;20.956;2022-07-22T00:37:43;8.60;;;6.50;;
65597;SDS011;52267;51.984;20.956;2022-07-22T00:40:11;10.10;;;6.80;;
65597;SDS011;52267;51.984;20.956;2022-07-22T00:42:39;9.60;;;6.80;;
65597;SDS011;52267;51.984;20.956;2022-07-22T00:45:07;11.50;;;6.50;;
65597;SDS011;52267;51.984;20.956;2022-07-22T00:47:35;9.90;;;6.60;;
65597;SDS011;52267;51.984;20.956;2022-07-22T00:50:03;9.50;;;6.00;;
65597;SDS011;52267;51.984;20.956;2022-07-22T00:52:32;9.50;;;6.20;;
65597;SDS011;52267;51.984;20.956;2022-07-22T00:55:00;10.70;;;6.30;;
65597;SDS011;52267;51.984;20.956;2022-07-22T00:57:31;9.50;;;6.20;;
65597;SDS011;52267;51.984;20.956;2022-07-22T00:59:58;8.30;;;6.00;;
65597;SDS011;52267;51.984;20.956;2022-07-22T01:02:25;9.00;;;6.50;;
65597;SDS011;52267;51.984;20.956;2022-07-22T01:04:52;8.30;;;6.10;;
65597;SDS011;52267;51.984;20.956;2022-07-22T01:07:19;9.40;;;6.70;;
65597;SDS011;52267;51.984;20.956;2022-07-22T01:09:46;12.60;;;8.50;;
65597;SDS011;52267;51.984;20.956;2022-07-22T01:12:14;11.40;;;7.40;;
65597;SDS011;52267;51.984;20.956;2022-07-22T01:14:41;9.70;;;6.60;;
65597;SDS011;52267;51.984;20.956;2022-07-22T01:17:08;8.80;;;5.90;;
65597;SDS011;52267;51.984;20.956;2022-07-22T01:19:36;9.40;;;6.70;;
65597;SDS011;52267;51.984;20.956;2022-07-22T01:22:06;10.60;;;6.60;;
65597;SDS011;52267;51.984;20.956;2022-07-22T01:24:34;8.00;;;6.70;;
65597;SDS011;52267;51.984;20.956;2022-07-22T01:27:01;12.40;;;7.00;;
65597;SDS011;52267;51.984;20.956;2022-07-22T01:29:28;9.90;;;6.70;;
65597;SDS011;52267;51.984;20.956;2022-07-22T01:31:55;11.30;;;7.10;;
65597;SDS011;52267;51.984;20.956;2022-07-22T01:34:23;11.40;;;6.70;;
65597;SDS011;52267;51.984;20.956;2022-07-22T01:36:51;9.00;;;6.00;;
65597;SDS011;52267;51.984;20.956;2022-07-22T01:39:18;12.40;;;6.60;;
65597;SDS011;52267;51.984;20.956;2022-07-22T01:41:45;10.90;;;6.80;;
65597;SDS011;52267;51.984;20.956;2022-07-22T01:44:12;8.30;;;6.50;;
65597;SDS011;52267;51.984;20.956;2022-07-22T01:46:39;10.30;;;6.90;;
65597;SDS011;52267;51.984;20.956;2022-07-22T01:49:06;9.80;;;6.50;;
65597;SDS011;52267;51.984;20.956;2022-07-22T01:51:33;11.60;;;7.30;;
65597;SDS011;52267;51.984;20.956;2022-07-22T01:54:00;10.70;;;6.70;;
65597;SDS011;52267;51.984;20.956;2022-07-22T01:56:27;9.70;;;6.30;;
65597;SDS011;52267;51.984;20.956;2022-07-22T01:58:54;9.50;;;7.30;;
65597;SDS011;52267;51.984;20.956;2022-07-22T02:01:22;10.30;;;6.80;;
65597;SDS011;52267;51.984;20.956;2022-07-22T02:03:51;11.70;;;7.00;;
65597;SDS011;52267;51.984;20.956;2022-07-22T02:06:18;9.20;;;6.60;;
65597;SDS011;52267;51.984;20.956;2022-07-22T02:08:45;10.50;;;6.40;;
65597;SDS011;52267;51.984;20.956;2022-07-22T02:11:12;9.50;;;6.60;;
65597;SDS011;52267;51.984;20.956;2022-07-22T02:13:39;11.60;;;7.20;;
65597;SDS011;52267;51.984;20.956;2022-07-22T02:16:06;11.60;;;7.70;;
65597;SDS011;52267;51.984;20.956;2022-07-22T02:18:33;12.90;;;7.40;;
65597;SDS011;52267;51.984;20.956;2022-07-22T02:21:00;11.50;;;7.60;;
65597;SDS011;52267;51.984;20.956;2022-07-22T02:23:27;11.00;;;7.40;;
65597;SDS011;52267;51.984;20.956;2022-07-22T02:25:54;9.40;;;6.90;;
65597;SDS011;52267;51.984;20.956;2022-07-22T02:28:21;10.90;;;7.10;;
65597;SDS011;52267;51.984;20.956;2022-07-22T02:30:48;9.20;;;6.70;;
65597;SDS011;52267;51.984;20.956;2022-07-22T02:33:15;10.60;;;7.10;;
65597;SDS011;52267;51.984;20.956;2022-07-22T02:35:42;8.80;;;6.60;;
65597;SDS011;52267;51.984;20.956;2022-07-22T02:38:10;10.10;;;6.80;;
65597;SDS011;52267;51.984;20.956;2022-07-22T02:40:37;11.30;;;7.80;;
65597;SDS011;52267;51.984;20.956;2022-07-22T02:43:04;11.10;;;7.00;;
65597;SDS011;52267;51.984;20.956;2022-07-22T02:45:33;11.70;;;8.30;;
65597;SDS011;52267;51.984;20.956;2022-07-22T02:48:00;11.00;;;7.60;;
65597;SDS011;52267;51.984;20.956;2022-07-22T02:50:28;11.40;;;7.30;;
65597;SDS011;52267;51.984;20.956;2022-07-22T02:52:55;10.50;;;7.80;;
65597;SDS011;52267;51.984;20.956;2022-07-22T02:55:22;11.40;;;8.50;;
65597;SDS011;52267;51.984;20.956;2022-07-22T02:57:49;11.80;;;7.80;;
65597;SDS011;52267;51.984;20.956;2022-07-22T03:00:16;13.00;;;8.00;;
65597;SDS011;52267;51.984;20.956;2022-07-22T03:02:43;13.00;;;7.90;;
65597;SDS011;52267;51.984;20.956;2022-07-22T03:05:10;11.00;;;8.10;;
65597;SDS011;52267;51.984;20.956;2022-07-22T03:07:39;10.60;;;7.50;;
65597;SDS011;52267;51.984;20.956;2022-07-22T03:10:06;12.40;;;7.80;;
65597;SDS011;52267;51.984;20.956;2022-07-22T03:12:33;12.60;;;8.10;;
65597;SDS011;52267;51.984;20.956;2022-07-22T03:15:00;13.60;;;7.10;;
65597;SDS011;52267;51.984;20.956;2022-07-22T03:17:27;10.90;;;7.60;;
65597;SDS011;52267;51.984;20.956;2022-07-22T03:19:54;11.10;;;8.10;;
65597;SDS011;52267;51.984;20.956;2022-07-22T03:22:22;10.30;;;7.30;;
65597;SDS011;52267;51.984;20.956;2022-07-22T03:24:48;11.10;;;7.70;;
65597;SDS011;52267;51.984;20.956;2022-07-22T03:27:16;13.50;;;7.90;;
65597;SDS011;52267;51.984;20.956;2022-07-22T03:29:43;12.20;;;8.70;;
65597;SDS011;52267;51.984;20.956;2022-07-22T03:32:10;13.40;;;8.40;;
65597;SDS011;52267;51.984;20.956;2022-07-22T03:34:37;13.10;;;8.70;;
65597;SDS011;52267;51.984;20.956;2022-07-22T03:37:04;16.00;;;8.90;;
65597;SDS011;52267;51.984;20.956;2022-07-22T03:39:31;11.40;;;8.50;;
65597;SDS011;52267;51.984;20.956;2022-07-22T03:41:58;12.90;;;7.90;;
65597;SDS011;52267;51.984;20.956;2022-07-22T03:44:26;11.60;;;7.70;;
65597;SDS011;52267;51.984;20.956;2022-07-22T03:46:53;11.50;;;8.20;;
65597;SDS011;52267;51.984;20.956;2022-07-22T03:49:20;10.70;;;7.20;;
65597;SDS011;52267;51.984;20.956;2022-07-22T03:51:47;12.00;;;7.80;;
65597;SDS011;52267;51.984;20.956;2022-07-22T03:54:14;10.40;;;7.50;;
65597;SDS011;52267;51.984;20.956;2022-07-22T03:56:41;11.50;;;8.20;;
65597;SDS011;52267;51.984;20.956;2022-07-22T03:59:08;14.20;;;8.90;;
65597;SDS011;52267;51.984;20.956;2022-07-22T04:01:35;13.60;;;9.20;;
65597;SDS011;52267;51.984;20.956;2022-07-22T04:04:02;13.30;;;9.40;;
65597;SDS011;52267;51.984;20.956;2022-07-22T04:06:29;12.30;;;8.70;;
65597;SDS011;52267;51.984;20.956;2022-07-22T04:08:56;13.90;;;8.80;;
65597;SDS011;52267;51.984;20.956;2022-07-22T04:11:23;12.50;;;9.30;;
65597;SDS011;52267;51.984;20.956;2022-07-22T04:13:50;13.80;;;8.50;;
65597;SDS011;52267;51.984;20.956;2022-07-22T04:16:18;16.60;;;9.90;;
65597;SDS011;52267;51.984;20.956;2022-07-22T04:18:45;14.80;;;9.20;;
65597;SDS011;52267;51.984;20.956;2022-07-22T04:21:12;13.20;;;8.90;;
65597;SDS011;52267;51.984;20.956;2022-07-22T04:23:39;14.30;;;9.50;;
65597;SDS011;52267;51.984;20.956;2022-07-22T04:26:06;12.50;;;10.20;;
65597;SDS011;52267;51.984;20.956;2022-07-22T04:28:34;14.80;;;8.90;;
65597;SDS011;52267;51.984;20.956;2022-07-22T04:31:04;14.10;;;8.80;;
65597;SDS011;52267;51.984;20.956;2022-07-22T04:33:31;13.10;;;9.80;;
65597;SDS011;52267;51.984;20.956;2022-07-22T04:35:59;14.40;;;9.60;;
65597;SDS011;52267;51.984;20.956;2022-07-22T04:38:26;16.20;;;8.90;;
65597;SDS011;52267;51.984;20.956;2022-07-22T04:40:53;13.30;;;8.30;;
65597;SDS011;52267;51.984;20.956;2022-07-22T04:43:21;17.50;;;9.80;;
65597;SDS011;52267;51.984;20.956;2022-07-22T04:45:49;14.80;;;9.30;;
65597;SDS011;52267;51.984;20.956;2022-07-22T04:48:16;12.30;;;9.00;;
65597;SDS011;52267;51.984;20.956;2022-07-22T04:50:44;13.50;;;8.60;;
65597;SDS011;52267;51.984;20.956;2022-07-22T04:53:11;12.00;;;8.80;;
65597;SDS011;52267;51.984;20.956;2022-07-22T04:55:38;12.80;;;8.50;;
65597;SDS011;52267;51.984;20.956;2022-07-22T04:58:06;12.30;;;8.80;;
65597;SDS011;52267;51.984;20.956;2022-07-22T05:00:33;15.60;;;9.40;;
65597;SDS011;52267;51.984;20.956;2022-07-22T05:03:00;11.50;;;8.40;;
65597;SDS011;52267;51.984;20.956;2022-07-22T05:05:27;13.20;;;7.80;;
65597;SDS011;52267;51.984;20.956;2022-07-22T05:07:55;15.40;;;9.10;;
65597;SDS011;52267;51.984;20.956;2022-07-22T05:10:22;9.80;;;7.90;;
65597;SDS011;52267;51.984;20.956;2022-07-22T05:12:49;12.80;;;8.30;;
65597;SDS011;52267;51.984;20.956;2022-07-22T05:15:16;11.90;;;8.50;;
65597;SDS011;52267;51.984;20.956;2022-07-22T05:17:43;12.00;;;7.60;;
65597;SDS011;52267;51.984;20.956;2022-07-22T05:20:10;12.10;;;7.90;;
65597;SDS011;52267;51.984;20.956;2022-07-22T05:22:38;14.00;;;7.30;;
65597;SDS011;52267;51.984;20.956;2022-07-22T05:25:05;9.50;;;6.70;;
65597;SDS011;52267;51.984;20.956;2022-07-22T05:27:32;11.00;;;7.80;;
65597;SDS011;52267;51.984;20.956;2022-07-22T05:29:59;11.70;;;7.60;;
65597;SDS011;52267;51.984;20.956;2022-07-22T05:32:26;9.40;;;6.80;;
65597;SDS011;52267;51.984;20.956;2022-07-22T05:34:54;14.40;;;8.30;;
65597;SDS011;52267;51.984;20.956;2022-07-22T05:37:21;13.10;;;7.00;;
65597;SDS011;52267;51.984;20.956;2022-07-22T05:39:48;11.40;;;7.60;;
65597;SDS011;52267;51.984;20.956;2022-07-22T05:42:15;13.30;;;7.90;;
65597;SDS011;52267;51.984;20.956;2022-07-22T05:44:42;11.10;;;7.10;;
65597;SDS011;52267;51.984;20.956;2022-07-22T05:47:09;12.00;;;6.90;;
65597;SDS011;52267;51.984;20.956;2022-07-22T05:49:37;11.80;;;7.80;;
65597;SDS011;52267;51.984;20.956;2022-07-22T05:52:04;10.20;;;7.00;;
65597;SDS011;52267;51.984;20.956;2022-07-22T05:54:31;8.70;;;7.30;;
65597;SDS011;52267;51.984;20.956;2022-07-22T05:56:58;12.90;;;7.80;;
65597;SDS011;52267;51.984;20.956;2022-07-22T05:59:25;11.50;;;7.10;;
65597;SDS011;52267;51.984;20.956;2022-07-22T06:01:52;11.40;;;7.40;;
65597;SDS011;52267;51.984;20.956;2022-07-22T06:04:19;14.70;;;7.40;;
65597;SDS011;52267;51.984;20.956;2022-07-22T06:06:47;10.30;;;7.30;;
65597;SDS011;52267;51.984;20.956;2022-07-22T06:09:14;12.60;;;7.40;;
65597;SDS011;52267;51.984;20.956;2022-07-22T06:11:41;9.10;;;6.70;;
65597;SDS011;52267;51.984;20.956;2022-07-22T06:14:08;8.10;;;6.20;;
65597;SDS011;52267;51.984;20.956;2022-07-22T06:16:35;10.00;;;6.30;;
65597;SDS011;52267;51.984;20.956;2022-07-22T06:19:03;10.30;;;6.30;;
65597;SDS011;52267;51.984;20.956;2022-07-22T06:21:30;10.50;;;6.70;;
65597;SDS011;52267;51.984;20.956;2022-07-22T06:23:57;9.90;;;5.90;;
65597;SDS011;52267;51.984;20.956;2022-07-22T06:26:24;10.90;;;6.10;;
65597;SDS011;52267;51.984;20.956;2022-07-22T06:28:51;10.50;;;6.30;;
65597;SDS011;52267;51.984;20.956;2022-07-22T06:31:18;10.60;;;5.70;;
65597;SDS011;52267;51.984;20.956;2022-07-22T06:33:45;9.90;;;6.90;;
65597;SDS011;52267;51.984;20.956;2022-07-22T06:36:12;11.00;;;6.80;;
65597;SDS011;52267;51.984;20.956;2022-07-22T06:38:40;10.60;;;6.20;;
65597;SDS011;52267;51.984;20.956;2022-07-22T06:41:07;9.80;;;6.10;;
65597;SDS011;52267;51.984;20.956;2022-07-22T06:43:35;10.60;;;5.90;;
65597;SDS011;52267;51.984;20.956;2022-07-22T06:46:02;9.20;;;5.40;;
65597;SDS011;52267;51.984;20.956;2022-07-22T06:48:29;9.00;;;6.10;;
65597;SDS011;52267;51.984;20.956;2022-07-22T06:50:57;7.30;;;5.40;;
65597;SDS011;52267;51.984;20.956;2022-07-22T06:53:24;6.70;;;4.90;;
65597;SDS011;52267;51.984;20.956;2022-07-22T06:55:51;8.20;;;5.20;;
65597;SDS011;52267;51.984;20.956;2022-07-22T06:58:18;9.10;;;4.80;;
65597;SDS011;52267;51.984;20.956;2022-07-22T07:00:45;8.10;;;4.80;;
65597;SDS011;52267;51.984;20.956;2022-07-22T07:03:12;7.40;;;4.40;;
65597;SDS011;52267;51.984;20.956;2022-07-22T07:05:40;9.00;;;4.70;;
65597;SDS011;52267;51.984;20.956;2022-07-22T07:08:07;7.90;;;4.80;;
65597;SDS011;52267;51.984;20.956;2022-07-22T07:10:34;7.60;;;3.80;;
65597;SDS011;52267;51.984;20.956;2022-07-22T07:13:01;6.30;;;3.50;;
65597;SDS011;52267;51.984;20.956;2022-07-22T07:15:35;7.30;;;4.10;;
65597;SDS011;52267;51.984;20.956;2022-07-22T07:18:02;5.20;;;3.80;;
65597;SDS011;52267;51.984;20.956;2022-07-22T07:20:30;5.60;;;3.80;;
65597;SDS011;52267;51.984;20.956;2022-07-22T07:23:00;7.20;;;3.60;;
65597;SDS011;52267;51.984;20.956;2022-07-22T07:25:28;11.30;;;4.40;;
65597;SDS011;52267;51.984;20.956;2022-07-22T07:27:56;6.40;;;4.20;;
65597;SDS011;52267;51.984;20.956;2022-07-22T07:30:23;8.40;;;4.10;;
65597;SDS011;52267;51.984;20.956;2022-07-22T07:32:50;6.10;;;4.10;;
65597;SDS011;52267;51.984;20.956;2022-07-22T07:35:17;5.20;;;3.40;;
65597;SDS011;52267;51.984;20.956;2022-07-22T07:37:45;7.80;;;4.30;;
65597;SDS011;52267;51.984;20.956;2022-07-22T07:40:12;8.10;;;4.00;;
65597;SDS011;52267;51.984;20.956;2022-07-22T07:42:40;5.60;;;3.80;;
65597;SDS011;52267;51.984;20.956;2022-07-22T07:45:07;7.60;;;4.00;;
65597;SDS011;52267;51.984;20.956;2022-07-22T07:47:35;8.00;;;4.40;;
65597;SDS011;52267;51.984;20.956;2022-07-22T07:50:04;7.80;;;4.20;;
65597;SDS011;52267;51.984;20.956;2022-07-22T07:52:41;8.40;;;4.80;;
65597;SDS011;52267;51.984;20.956;2022-07-22T07:55:09;9.20;;;4.70;;
65597;SDS011;52267;51.984;20.956;2022-07-22T07:57:37;6.20;;;4.00;;
65597;SDS011;52267;51.984;20.956;2022-07-22T08:00:07;9.50;;;5.10;;
65597;SDS011;52267;51.984;20.956;2022-07-22T08:02:38;10.50;;;5.00;;
65597;SDS011;52267;51.984;20.956;2022-07-22T08:05:07;6.90;;;4.30;;
65597;SDS011;52267;51.984;20.956;2022-07-22T08:07:35;7.40;;;5.00;;
65597;SDS011;52267;51.984;20.956;2022-07-22T08:10:03;8.80;;;5.20;;
65597;SDS011;52267;51.984;20.956;2022-07-22T08:12:31;9.00;;;6.40;;
65597;SDS011;52267;51.984;20.956;2022-07-22T08:14:58;7.10;;;4.80;;
65597;SDS011;52267;51.984;20.956;2022-07-22T08:17:26;9.30;;;5.20;;
65597;SDS011;52267;51.984;20.956;2022-07-22T08:19:53;10.20;;;6.20;;
65597;SDS011;52267;51.984;20.956;2022-07-22T08:22:20;9.50;;;5.30;;
65597;SDS011;52267;51.984;20.956;2022-07-22T08:24:47;10.90;;;6.60;;
65597;SDS011;52267;51.984;20.956;2022-07-22T08:27:14;9.60;;;6.00;;
65597;SDS011;52267;51.984;20.956;2022-07-22T08:29:41;11.40;;;8.30;;
65597;SDS011;52267;51.984;20.956;2022-07-22T08:32:08;11.50;;;7.60;;
65597;SDS011;52267;51.984;20.956;2022-07-22T08:34:35;10.30;;;7.80;;
65597;SDS011;52267;51.984;20.956;2022-07-22T08:37:03;14.00;;;7.80;;
65597;SDS011;52267;51.984;20.956;2022-07-22T08:39:30;12.80;;;8.50;;
65597;SDS011;52267;51.984;20.956;2022-07-22T08:41:58;10.80;;;8.00;;
65597;SDS011;52267;51.984;20.956;2022-07-22T08:44:29;10.30;;;7.60;;
65597;SDS011;52267;51.984;20.956;2022-07-22T08:47:00;13.50;;;8.30;;
65597;SDS011;52267;51.984;20.956;2022-07-22T08:49:28;11.30;;;8.10;;
65597;SDS011;52267;51.984;20.956;2022-07-22T08:51:55;11.50;;;7.70;;
65597;SDS011;52267;51.984;20.956;2022-07-22T08:54:22;12.40;;;8.20;;
65597;SDS011;52267;51.984;20.956;2022-07-22T08:56:51;12.30;;;7.90;;
65597;SDS011;52267;51.984;20.956;2022-07-22T08:59:19;12.10;;;9.10;;
65597;SDS011;52267;51.984;20.956;2022-07-22T09:02:09;13.30;;;8.60;;
65597;SDS011;52267;51.984;20.956;2022-07-22T09:04:59;14.90;;;8.80;;
65597;SDS011;52267;51.984;20.956;2022-07-22T09:07:40;13.70;;;9.30;;
65597;SDS011;52267;51.984;20.956;2022-07-22T09:10:14;12.50;;;9.40;;
65597;SDS011;52267;51.984;20.956;2022-07-22T09:13:04;10.90;;;8.60;;
65597;SDS011;52267;51.984;20.956;2022-07-22T09:15:34;12.20;;;10.20;;
65597;SDS011;52267;51.984;20.956;2022-07-22T09:18:04;13.10;;;9.70;;
65597;SDS011;52267;51.984;20.956;2022-07-22T09:20:35;16.00;;;10.30;;
65597;SDS011;52267;51.984;20.956;2022-07-22T09:23:18;13.80;;;9.90;;
65597;SDS011;52267;51.984;20.956;2022-07-22T09:25:48;12.60;;;9.20;;
65597;SDS011;52267;51.984;20.956;2022-07-22T09:28:21;13.40;;;10.10;;
65597;SDS011;52267;51.984;20.956;2022-07-22T09:30:51;12.00;;;9.80;;
65597;SDS011;52267;51.984;20.956;2022-07-22T09:33:20;12.70;;;9.90;;
65597;SDS011;52267;51.984;20.956;2022-07-22T09:35:48;14.30;;;10.10;;
65597;SDS011;52267;51.984;20.956;2022-07-22T09:38:18;15.70;;;11.00;;
65597;SDS011;52267;51.984;20.956;2022-07-22T09:40:48;15.00;;;10.20;;
65597;SDS011;52267;51.984;20.956;2022-07-22T09:43:19;13.30;;;10.20;;
65597;SDS011;52267;51.984;20.956;2022-07-22T09:48:19;13.10;;;11.00;;
65597;SDS011;52267;51.984;20.956;2022-07-22T09:53:17;16.60;;;11.40;;
65597;SDS011;52267;51.984;20.956;2022-07-22T09:55:49;15.50;;;11.30;;
65597;SDS011;52267;51.984;20.956;2022-07-22T10:00:43;17.80;;;11.80;;
65597;SDS011;52267;51.984;20.956;2022-07-22T10:03:14;15.50;;;12.10;;
65597;SDS011;52267;51.984;20.956;2022-07-22T10:05:45;14.30;;;11.50;;
65597;SDS011;52267;51.984;20.956;2022-07-22T10:08:12;14.50;;;12.30;;
65597;SDS011;52267;51.984;20.956;2022-07-22T10:10:40;18.10;;;11.30;;
65597;SDS011;52267;51.984;20.956;2022-07-22T10:13:08;17.80;;;12.10;;
65597;SDS011;52267;51.984;20.956;2022-07-22T10:15:36;13.90;;;11.50;;
65597;SDS011;52267;51.984;20.956;2022-07-22T10:18:16;15.50;;;12.40;;
65597;SDS011;52267;51.984;20.956;2022-07-22T10:20:44;17.10;;;12.00;;
65597;SDS011;52267;51.984;20.956;2022-07-22T10:23:12;14.20;;;11.20;;
65597;SDS011;52267;51.984;20.956;2022-07-22T10:25:55;13.90;;;11.30;;
65597;SDS011;52267;51.984;20.956;2022-07-22T10:28:27;17.10;;;11.50;;
65597;SDS011;52267;51.984;20.956;2022-07-22T10:33:54;13.90;;;10.60;;
65597;SDS011;52267;51.984;20.956;2022-07-22T10:36:39;15.20;;;11.70;;
65597;SDS011;52267;51.984;20.956;2022-07-22T10:39:11;13.30;;;10.60;;
65597;SDS011;52267;51.984;20.956;2022-07-22T10:41:44;13.00;;;11.00;;
65597;SDS011;52267;51.984;20.956;2022-07-22T10:44:13;12.50;;;10.70;;
65597;SDS011;52267;51.984;20.956;2022-07-22T10:46:54;15.40;;;11.20;;
65597;SDS011;52267;51.984;20.956;2022-07-22T10:49:25;12.80;;;11.20;;
65597;SDS011;52267;51.984;20.956;2022-07-22T10:57:43;12.70;;;10.00;;
65597;SDS011;52267;51.984;20.956;2022-07-22T11:00:10;12.00;;;10.40;;
65597;SDS011;52267;51.984;20.956;2022-07-22T11:02:38;11.90;;;9.90;;
65597;SDS011;52267;51.984;20.956;2022-07-22T11:05:06;14.00;;;8.80;;
65597;SDS011;52267;51.984;20.956;2022-07-22T11:07:46;13.30;;;10.00;;
65597;SDS011;52267;51.984;20.956;2022-07-22T11:10:18;15.50;;;10.80;;
65597;SDS011;52267;51.984;20.956;2022-07-22T11:12:48;12.10;;;10.40;;
65597;SDS011;52267;51.984;20.956;2022-07-22T11:15:16;12.80;;;9.60;;
65597;SDS011;52267;51.984;20.956;2022-07-22T11:17:43;13.70;;;9.60;;
65597;SDS011;52267;51.984;20.956;2022-07-22T11:20:12;11.00;;;9.60;;
65597;SDS011;52267;51.984;20.956;2022-07-22T11:25:09;14.30;;;11.00;;
65597;SDS011;52267;51.984;20.956;2022-07-22T11:27:37;11.00;;;9.20;;
65597;SDS011;52267;51.984;20.956;2022-07-22T11:30:05;12.50;;;9.10;;
65597;SDS011;52267;51.984;20.956;2022-07-22T11:32:41;12.10;;;8.90;;
65597;SDS011;52267;51.984;20.956;2022-07-22T11:35:12;14.40;;;10.00;;
65597;SDS011;52267;51.984;20.956;2022-07-22T11:37:40;13.00;;;9.40;;
65597;SDS011;52267;51.984;20.956;2022-07-22T11:40:09;14.30;;;10.00;;
65597;SDS011;52267;51.984;20.956;2022-07-22T11:42:36;10.70;;;8.90;;
65597;SDS011;52267;51.984;20.956;2022-07-22T11:45:04;11.10;;;9.40;;
65597;SDS011;52267;51.984;20.956;2022-07-22T11:47:32;11.30;;;10.00;;
65597;SDS011;52267;51.984;20.956;2022-07-22T11:49:59;13.30;;;10.30;;
65597;SDS011;52267;51.984;20.956;2022-07-22T11:52:26;11.60;;;9.80;;
65597;SDS011;52267;51.984;20.956;2022-07-22T11:54:53;14.40;;;10.30;;
65597;SDS011;52267;51.984;20.956;2022-07-22T11:57:20;15.50;;;10.00;;
65597;SDS011;52267;51.984;20.956;2022-07-22T11:59:47;14.20;;;9.70;;
65597;SDS011;52267;51.984;20.956;2022-07-22T12:02:14;12.80;;;9.50;;
65597;SDS011;52267;51.984;20.956;2022-07-22T12:04:42;12.40;;;9.90;;
65597;SDS011;52267;51.984;20.956;2022-07-22T12:07:13;11.70;;;9.90;;
65597;SDS011;52267;51.984;20.956;2022-07-22T12:09:40;14.10;;;10.00;;
65597;SDS011;52267;51.984;20.956;2022-07-22T12:12:09;11.40;;;9.70;;
65597;SDS011;52267;51.984;20.956;2022-07-22T12:14:36;12.40;;;9.60;;
65597;SDS011;52267;51.984;20.956;2022-07-22T12:17:08;12.30;;;9.50;;
65597;SDS011;52267;51.984;20.956;2022-07-22T12:19:40;10.90;;;8.70;;
65597;SDS011;52267;51.984;20.956;2022-07-22T12:22:09;14.60;;;10.90;;
65597;SDS011;52267;51.984;20.956;2022-07-22T12:24:58;12.30;;;9.30;;
65597;SDS011;52267;51.984;20.956;2022-07-22T12:27:27;10.40;;;9.20;;
65597;SDS011;52267;51.984;20.956;2022-07-22T12:29:55;10.60;;;9.00;;
65597;SDS011;52267;51.984;20.956;2022-07-22T12:34:57;10.30;;;8.50;;
65597;SDS011;52267;51.984;20.956;2022-07-22T12:37:30;12.30;;;9.90;;
65597;SDS011;52267;51.984;20.956;2022-07-22T12:40:07;13.00;;;9.40;;
65597;SDS011;52267;51.984;20.956;2022-07-22T12:42:44;10.60;;;9.10;;
65597;SDS011;52267;51.984;20.956;2022-07-22T12:45:16;15.70;;;10.10;;
65597;SDS011;52267;51.984;20.956;2022-07-22T12:50:26;11.20;;;9.50;;
65597;SDS011;52267;51.984;20.956;2022-07-22T12:55:26;11.70;;;10.10;;
65597;SDS011;52267;51.984;20.956;2022-07-22T12:57:53;11.40;;;9.10;;
65597;SDS011;52267;51.984;20.956;2022-07-22T13:00:29;11.90;;;10.60;;
65597;SDS011;52267;51.984;20.956;2022-07-22T13:03:01;20.80;;;10.00;;
65597;SDS011;52267;51.984;20.956;2022-07-22T13:05:28;15.10;;;10.10;;
65597;SDS011;52267;51.984;20.956;2022-07-22T13:08:14;13.40;;;10.50;;
65597;SDS011;52267;51.984;20.956;2022-07-22T13:10:53;11.60;;;10.40;;
65597;SDS011;52267;51.984;20.956;2022-07-22T13:13:21;11.90;;;10.50;;
65597;SDS011;52267;51.984;20.956;2022-07-22T13:15:49;12.90;;;9.90;;
65597;SDS011;52267;51.984;20.956;2022-07-22T13:18:18;12.80;;;9.90;;
65597;SDS011;52267;51.984;20.956;2022-07-22T13:20:45;10.30;;;9.20;;
65597;SDS011;52267;51.984;20.956;2022-07-22T13:23:13;13.80;;;9.60;;
65597;SDS011;52267;51.984;20.956;2022-07-22T13:25:41;11.40;;;9.90;;
65597;SDS011;52267;51.984;20.956;2022-07-22T13:28:09;12.40;;;10.50;;
65597;SDS011;52267;51.984;20.956;2022-07-22T13:30:36;12.60;;;10.40;;
65597;SDS011;52267;51.984;20.956;2022-07-22T13:33:03;14.70;;;10.80;;
65597;SDS011;52267;51.984;20.956;2022-07-22T13:35:30;11.40;;;10.30;;
65597;SDS011;52267;51.984;20.956;2022-07-22T13:37:58;11.30;;;9.30;;
65597;SDS011;52267;51.984;20.956;2022-07-22T13:40:25;10.30;;;9.20;;
65597;SDS011;52267;51.984;20.956;2022-07-22T13:42:53;10.70;;;8.80;;
65597;SDS011;52267;51.984;20.956;2022-07-22T13:45:20;11.60;;;9.20;;
65597;SDS011;52267;51.984;20.956;2022-07-22T13:47:47;11.90;;;10.20;;
65597;SDS011;52267;51.984;20.956;2022-07-22T13:50:14;10.80;;;9.70;;
65597;SDS011;52267;51.984;20.956;2022-07-22T13:52:42;11.50;;;9.60;;
65597;SDS011;52267;51.984;20.956;2022-07-22T13:55:12;10.50;;;9.40;;
65597;SDS011;52267;51.984;20.956;2022-07-22T13:57:40;13.70;;;10.00;;
65597;SDS011;52267;51.984;20.956;2022-07-22T14:00:09;11.20;;;9.70;;
65597;SDS011;52267;51.984;20.956;2022-07-22T14:02:37;15.60;;;10.00;;
65597;SDS011;52267;51.984;20.956;2022-07-22T14:05:05;11.10;;;9.60;;
65597;SDS011;52267;51.984;20.956;2022-07-22T14:07:32;13.30;;;10.20;;
65597;SDS011;52267;51.984;20.956;2022-07-22T14:10:00;11.30;;;10.10;;
65597;SDS011;52267;51.984;20.956;2022-07-22T14:12:27;10.50;;;9.30;;
65597;SDS011;52267;51.984;20.956;2022-07-22T14:14:54;11.10;;;9.80;;
65597;SDS011;52267;51.984;20.956;2022-07-22T14:17:21;11.10;;;9.70;;
65597;SDS011;52267;51.984;20.956;2022-07-22T14:19:48;11.80;;;9.40;;
65597;SDS011;52267;51.984;20.956;2022-07-22T14:22:15;13.60;;;9.40;;
65597;SDS011;52267;51.984;20.956;2022-07-22T14:24:42;13.30;;;10.40;;
65597;SDS011;52267;51.984;20.956;2022-07-22T14:27:09;11.80;;;10.60;;
65597;SDS011;52267;51.984;20.956;2022-07-22T14:29:36;11.90;;;10.60;;
65597;SDS011;52267;51.984;20.956;2022-07-22T14:32:03;10.70;;;9.50;;
65597;SDS011;52267;51.984;20.956;2022-07-22T14:34:31;16.40;;;10.80;;
65597;SDS011;52267;51.984;20.956;2022-07-22T14:36:58;10.20;;;9.10;;
65597;SDS011;52267;51.984;20.956;2022-07-22T14:39:25;13.50;;;10.30;;
65597;SDS011;52267;51.984;20.956;2022-07-22T14:41:52;13.30;;;11.20;;
65597;SDS011;52267;51.984;20.956;2022-07-22T14:44:19;12.50;;;11.20;;
65597;SDS011;52267;51.984;20.956;2022-07-22T14:46:46;12.60;;;10.10;;
65597;SDS011;52267;51.984;20.956;2022-07-22T14:49:13;11.80;;;10.60;;
65597;SDS011;52267;51.984;20.956;2022-07-22T14:51:45;13.60;;;10.60;;
65597;SDS011;52267;51.984;20.956;2022-07-22T14:54:12;12.10;;;10.70;;